Latest Coastal Weather Observations for Low Rocky Point

IDT60701

Issued at 9:22 pm EST Saturday 29 April 2017 (issued every 10 minutes, with the page automatically refreshed every 10 minutes)

About coastal observations | Map of coastal stations | Coastal observations for TAS | Marine services | Other Formats
Station Details ID: 097080 Name: LOW ROCKY POINT Lat: -42.98 Lon: 145.50 Height: 34.0 m
Data from the previous 72 hours. | See also: Recent months at Low Rocky Point
Date/Time
EST
Temp
°C
Wind Pressure Rain since
9am
mm
Weather Cloud Vis
km
Sea
Height
m
Swell
Dir  Spd
kts
Gust
kts
hPa Trend Height
m
Period
s
Dir
29/09:00pm 10.7 NE 7 8 1022.0 - 0.4 - - - - - - -
29/08:30pm 10.9 NNE 4 6 1021.8 - 0.4 - - - - - - -
29/08:00pm 11.2 WNW 5 7 1021.8 - 0.4 - - - - - - -
29/07:30pm 11.0 WSW 4 6 1021.8 - 0.4 - - - - - - -
29/07:00pm 11.2 SW 5 7 1021.6 - 0.4 - - - - - - -
29/06:30pm 11.7 W 8 11 1021.4 - 0.4 - - - - - - -
29/06:00pm 11.5 WNW 4 7 1021.0 - 0.4 - - - - - - -
29/05:30pm 11.5 WNW 5 8 1020.7 - 0.4 - - - - - - -
29/05:00pm 12.1 W 6 7 1020.5 - 0.4 - - - - - - -
29/04:30pm 13.3 WSW 6 8 1020.5 - 0.4 - - - - - - -
29/04:00pm 12.7 WSW 5 7 1020.4 - 0.4 - - - - - - -
29/03:30pm 13.1 SW 8 12 1020.3 - 0.4 - - - - - - -
29/03:00pm 14.2 WSW 7 10 1020.0 - 0.4 Recent precip. - - - - - -
29/02:30pm 14.4 WSW 8 11 1020.0 - 0.4 - - - - - - -
29/02:00pm 13.8 WSW 6 11 1019.9 - 0.2 - - - - - - -
29/01:30pm 14.8 W 7 9 1019.8 - 0.2 - - - - - - -
29/01:00pm 14.3 WSW 7 10 1019.8 - 0.2 - - - - - - -
29/12:30pm 14.8 WSW 8 11 1019.8 - 0.2 - - - - - - -
29/12:00pm 13.9 WSW 11 16 1019.7 - 0.2 - - - - - - -
29/11:30am 13.3 WSW 8 11 1019.7 - 0.2 - - - - - - -
29/11:00am 13.1 SW 8 12 1019.6 - 0.2 - - - - - - -
29/10:30am 13.3 SW 9 12 1019.1 - 0.2 - - - - - - -
29/10:00am 12.4 WSW 8 14 1018.9 - 0.2 Recent precip. - - - - - -
29/09:30am 11.8 SW 12 19 1018.7 - 0.2 - - - - - - -
29/09:00am 12.1 SW 15 20 1018.4 - 2.2 - - - - - - -
29/08:30am 11.7 WSW 10 16 1017.9 - 2.2 - - - - - - -
29/08:00am 12.4 WSW 12 17 1017.4 - 2.2 Recent precip. - - - - - -
29/07:30am 12.2 WSW 13 18 1016.8 - 2.2 - - - - - - -
29/07:00am 11.7 WSW 16 23 1016.5 - 2.0 - - - - - - -
29/06:30am 12.4 WSW 17 23 1016.2 - 2.0 - - - - - - -
29/06:00am 11.9 WSW 16 26 1015.9 - 2.0 - - - - - - -
29/05:55am 11.8 WSW 16 26 1016.0 - 2.0 - - - - - - -
29/05:30am 12.1 WSW 17 25 1015.7 - 2.0 - - - - - - -
29/05:00am 12.0 WSW 22 29 1015.2 - 2.0 Recent precip. - - - - - -
29/04:47am 12.8 W 21 32 1015.0 - 1.8 - - - - - - -
29/04:30am 12.7 W 22 27 1014.8 - 1.8 - - - - - - -
29/04:00am 12.4 W 24 31 1014.6 - 1.8 - - - - - - -
29/03:50am 13.1 WNW 20 31 1014.5 - 1.8 - - - - - - -
29/03:30am 13.3 W 21 26 1014.4 - 1.8 - - - - - - -
29/03:00am 13.1 W 23 27 1014.2 - 1.8 - - - - - - -
29/02:30am 13.2 W 21 25 1014.3 - 1.8 - - - - - - -
29/02:00am 12.9 W 22 28 1014.2 - 1.8 - - - - - - -
29/01:30am 12.8 W 18 24 1014.3 - 1.8 - - - - - - -
29/01:00am 13.2 W 17 22 1014.3 - 1.8 - - - - - - -
29/12:30am 13.5 W 23 28 1014.2 - 1.8 - - - - - - -
29/12:00am 13.3 W 23 29 1013.9 - 1.8 Recent precip. - - - - - -
 
Date/Time
EST
Temp
°C
Wind Pressure Rain since
9am
mm
Weather Cloud Vis
km
Sea
Height
m
Swell
Dir  Spd
kts
Gust
kts
hPa Trend Height
m
Period
s
Dir
28/11:30pm 13.1 W 24 31 1013.9 - 1.8 - - - - - - -
28/11:00pm 13.0 W 24 29 1013.5 - 1.6 - - - - - - -
28/10:30pm 13.6 WNW 24 29 1013.1 - 1.6 - - - - - - -
28/10:00pm 13.8 WNW 25 29 1013.0 - 1.6 Recent precip. - - - - - -
28/09:30pm 13.9 WNW 25 31 1012.9 - 1.2 - - - - - - -
28/09:00pm 13.9 WNW 25 32 1012.9 - 1.2 - - - - - - -
28/08:30pm 14.0 WNW 25 30 1012.9 - 1.2 - - - - - - -
28/08:00pm 13.9 WNW 24 30 1012.9 - 1.2 - - - - - - -
28/07:30pm 13.9 WNW 24 29 1013.0 - 1.2 - - - - - - -
28/07:00pm 13.8 WNW 28 35 1012.9 - 1.2 - - - - - - -
28/06:30pm 14.0 WNW 28 32 1012.8 - 1.2 - - - - - - -
28/06:00pm 13.9 WNW 28 32 1012.6 - 1.2 Recent precip. - - - - - -
28/05:36pm 13.8 WNW 26 37 1012.6 - 1.2 - - - - - - -
28/05:30pm 13.9 WNW 25 30 1012.7 - 1.0 - - - - - - -
28/05:00pm 13.8 WNW 27 34 1012.6 - 1.0 Rain - - - - - -
28/04:30pm 13.9 NW 24 30 1012.8 - 0.8 - - - - - - -
28/04:00pm 13.7 NW 26 32 1012.8 - 0.6 Rain - - - - - -
28/03:30pm 13.9 NW 25 33 1013.1 - 0.4 - - - - - - -
28/03:00pm 14.3 NW 27 32 1013.3 - 0.4 - - - - - - -
28/02:30pm 13.9 NW 28 38 1013.2 - 0.4 - - - - - - -
28/02:23pm 14.0 NW 29 39 1013.1 - 0.4 - - - - - - -
28/02:00pm 14.6 NW 29 35 1013.4 - 0.4 - - - - - - -
28/01:35pm 14.2 NW 28 39 1013.9 - 0.4 - - - - - - -
28/01:30pm 14.6 NW 27 33 1014.0 - 0.4 - - - - - - -
28/01:00pm 14.3 NW 28 33 1014.1 - 0.4 - - - - - - -
28/12:30pm 14.6 NW 28 34 1014.3 - 0.4 - - - - - - -
28/12:00pm 14.1 NW 29 37 1015.0 - 0.4 - - - - - - -
28/11:30am 13.8 NW 27 33 1015.5 - 0.4 - - - - - - -
28/11:00am 14.0 NW 28 37 1015.3 - 0.4 - - - - - - -
28/10:30am 13.3 NW 26 33 1015.7 - 0.4 - - - - - - -
28/10:00am 13.3 NW 26 31 1015.6 - 0.4 Recent precip. - - - - - -
28/09:30am 13.4 NW 24 29 1015.8 - 0.2 - - - - - - -
28/09:00am 13.5 NW 21 26 1015.9 - 3.6 - - - - - - -
28/08:30am 12.7 NW 19 24 1016.1 - 3.6 - - - - - - -
28/08:00am 12.5 NW 21 26 1016.0 - 3.6 - - - - - - -
28/07:30am 12.6 NW 20 25 1016.1 - 3.6 - - - - - - -
28/07:00am 12.5 NW 19 24 1016.0 - 3.6 - - - - - - -
28/06:30am 12.3 NW 17 21 1015.8 - 3.6 - - - - - - -
28/06:00am 12.2 NW 17 21 1015.5 - 3.6 Rain - - - - - -
28/05:30am 12.5 WNW 14 18 1015.9 - 2.8 - - - - - - -
28/05:00am 12.2 WNW 16 20 1015.7 - 2.6 Recent precip. - - - - - -
28/04:30am 12.4 WNW 14 19 1015.9 - 2.4 - - - - - - -
28/04:00am 12.6 WNW 14 17 1015.6 - 2.4 Recent precip. - - - - - -
28/03:30am 12.3 WNW 17 21 1015.8 - 2.4 - - - - - - -
28/03:00am 12.4 WNW 14 18 1015.9 - 2.0 Recent precip. - - - - - -
28/02:30am 12.5 WNW 15 20 1016.0 - 2.0 - - - - - - -
28/02:00am 12.5 WNW 13 16 1015.9 - 1.8 - - - - - - -
28/01:30am 12.6 NW 13 17 1015.9 - 1.8 - - - - - - -
28/01:00am 12.9 WNW 16 22 1016.0 - 1.8 - - - - - - -
28/12:30am 13.3 WNW 18 21 1015.8 - 1.8 - - - - - - -
28/12:00am 13.3 W 19 24 1015.6 - 1.8 - - - - - - -
 
Date/Time
EST
Temp
°C
Wind Pressure Rain since
9am
mm
Weather Cloud Vis
km
Sea
Height
m
Swell
Dir  Spd
kts
Gust
kts
hPa Trend Height
m
Period
s
Dir
27/11:30pm 13.2 W 17 21 1015.8 - 1.8 - - - - - - -
27/11:00pm 13.3 W 17 21 1015.7 - 1.8 - - - - - - -
27/10:30pm 13.1 W 19 22 1015.9 - 1.8 - - - - - - -
27/10:00pm 13.1 W 21 26 1015.7 - 1.8 Recent precip. - - - - - -
27/09:30pm 13.6 WNW 24 28 1015.5 - 1.8 - - - - - - -
27/09:00pm 13.9 WNW 21 25 1015.3 - 1.6 - - - - - - -
27/08:30pm 13.6 WNW 22 26 1015.7 - 1.6 - - - - - - -
27/08:00pm 13.2 WNW 25 32 1015.6 - 1.6 Recent precip. - - - - - -
27/07:30pm 13.8 NW 23 28 1015.3 - 1.2 - - - - - - -
27/07:00pm 13.6 NW 22 29 1015.3 - 1.2 Recent precip. - - - - - -
27/06:38pm 13.1 WNW 19 29 1015.7 - 1.2 - - - - - - -
27/06:30pm 13.1 NW 21 26 1015.7 - 0.6 - - - - - - -
27/06:00pm 13.3 NW 23 27 1015.6 - 0.4 - - - - - - -
27/05:30pm 13.0 NW 25 31 1015.6 - 0.4 - - - - - - -
27/05:00pm 12.7 NW 24 29 1015.6 - 0.4 Recent precip. - - - - - -
27/04:30pm 12.5 NW 24 29 1015.9 - 0.2 - - - - - - -
27/04:00pm 12.4 NW 23 32 1016.0 - 0.2 Rain - - - - - -
27/03:30pm 12.8 NW 25 29 1016.2 - 0.0 - - - - - - -
27/03:00pm 12.3 NW 25 31 1016.2 - 0.0 - - - - - - -
27/02:30pm 12.8 NW 21 28 1016.4 - 0.0 - - - - - - -
27/02:00pm 11.9 NW 22 30 1016.7 - 0.0 - - - - - - -
27/01:30pm 12.5 NW 22 27 1017.0 - 0.0 - - - - - - -
27/01:00pm 12.7 NW 20 25 1017.3 - 0.0 - - - - - - -
27/12:30pm 12.8 NW 17 22 1017.9 - 0.0 - - - - - - -
27/12:00pm 12.5 NW 17 21 1018.5 - 0.0 - - - - - - -
27/11:30am 12.4 NW 16 21 1018.8 - 0.0 - - - - - - -
27/11:00am 12.3 WNW 18 24 1019.1 - 0.0 - - - - - - -
27/10:30am 11.9 WNW 15 19 1019.6 - 0.0 - - - - - - -
27/10:00am 12.0 WNW 14 18 1019.5 - 0.0 - - - - - - -
27/09:30am 11.5 WNW 13 18 1019.8 - 0.0 - - - - - - -
27/09:00am 11.3 W 14 19 1019.7 - 4.2 - - - - - - -
27/08:30am 10.9 W 13 17 1019.5 - 4.2 - - - - - - -
27/08:00am 10.3 WNW 13 17 1019.2 - 4.2 - - - - - - -
27/07:30am 9.8 WNW 11 14 1019.2 - 4.2 - - - - - - -
27/07:00am 9.4 W 10 13 1019.2 - 4.2 - - - - - - -
27/06:30am 9.4 WSW 12 16 1019.3 - 4.2 - - - - - - -
27/06:00am 9.1 W 11 15 1019.3 - 4.2 - - - - - - -
27/05:30am 9.1 W 12 16 1019.3 - 4.2 - - - - - - -
27/05:00am 9.5 WSW 11 21 1019.2 - 4.2 - - - - - - -
27/04:30am 9.2 W 11 17 1018.8 - 4.2 - - - - - - -
27/04:00am 8.5 WSW 10 14 1018.7 - 4.2 - - - - - - -
27/03:30am 8.4 WSW 13 23 1019.0 - 4.2 - - - - - - -
27/03:00am 8.5 SW 8 12 1018.9 - 4.2 - - - - - - -
27/02:30am 7.0 W 6 11 1018.9 - 4.2 - - - - - - -
27/02:00am 6.5 ENE 5 6 1018.9 - 4.2 - - - - - - -
27/01:30am 8.3 SSW 8 13 1019.1 - 4.2 - - - - - - -
27/01:00am 8.3 SSW 8 11 1018.9 - 4.2 - - - - - - -
27/12:30am 8.7 SW 10 13 1019.1 - 4.2 - - - - - - -
27/12:00am 8.8 SW 8 12 1019.0 - 4.2 - - - - - - -
 
Date/Time
EST
Temp
°C
Wind Pressure Rain since
9am
mm
Weather Cloud Vis
km
Sea
Height
m
Swell
Dir  Spd
kts
Gust
kts
hPa Trend Height
m
Period
s
Dir
26/11:30pm 8.9 SW 9 15 1018.8 - 4.2 - - - - - - -
26/11:00pm 7.8 SSW 9 13 1018.8 - 4.2 Recent precip. - - - - - -
26/10:30pm 7.9 SSW 10 14 1018.6 - 4.0 - - - - - - -
26/10:00pm 8.0 SSW 13 19 1018.5 - 4.0 - - - - - - -
26/09:30pm 7.7 SSW 12 17 1018.2 - 4.0 - - - - - - -

Other Formats:

Comma delimited format used in spreadsheet applications
http://www.bom.gov.au/fwo/IDT60701/IDT60701.95961.axf

JavaScript Object Notation format (JSON) in row-major order
http://www.bom.gov.au/fwo/IDT60701/IDT60701.95961.json